CheckWX is a tool to help pilots better visualize weather data.  It is not intended as a substitute for an official pre-flight weather briefing.

23:48:18 UTC

KLNS TAF
Lancaster Airport
Lancaster, Pennsylvania, USA
KLNS 222209Z 2222/2318 26006KT 4SM -RA BR BKN005 OVC025 WS020/17030KT FM230300 30004KT 4SM BR OVC070 WS016/17030KT FM230500 30007KT 4SM BR SKC FM231200 30009KT P6SM BKN250 FM231600 29012G19KT P6SM SKC

Oct-22@
22:00 UTC

Oct-22 @ 22:00 UTC

Oct-23@
03:00 UTC

Oct-23 @ 03:00 UTC

KLNS 222209Z 2222/2318 26006KT 4SM -RA BR BKN005 OVC025 WS020/17030KT
Wind
  • 260° at 6 KTS
Conditions
Light Rain, Mist
Cloud Levels
  • Broken at 500' AGL
  • Overcast at 2,500' AGL

Oct-23@
03:00 UTC

Oct-23 @ 03:00 UTC

Oct-23@
05:00 UTC

Oct-23 @ 05:00 UTC

FM230300 30004KT 4SM BR OVC070 WS016/17030KT

From

From Standard forecast or significant change

Wind
  • 300° at 4 KTS
Conditions
Mist
Cloud Levels
  • Overcast at 7,000' AGL

Oct-23@
05:00 UTC

Oct-23 @ 05:00 UTC

Oct-23@
12:00 UTC

Oct-23 @ 12:00 UTC

FM230500 30007KT 4SM BR SKC

From

From Standard forecast or significant change

Wind
  • 300° at 7 KTS
Conditions
Mist
Cloud Levels
  • Clear skies

Oct-23@
12:00 UTC

Oct-23 @ 12:00 UTC

Oct-23@
16:00 UTC

Oct-23 @ 16:00 UTC

FM231200 30009KT P6SM BKN250

From

From Standard forecast or significant change

Wind
  • 300° at 9 KTS
Cloud Levels
  • Broken at 25,000' AGL

Oct-23@
16:00 UTC

Oct-23 @ 16:00 UTC

Oct-23@
18:00 UTC

Oct-23 @ 18:00 UTC

FM231600 29012G19KT P6SM SKC

From

From Standard forecast or significant change

Wind
  • 290° at 12 KTS
  • {Gusting to 19 KTS
Cloud Levels
  • Clear skies